sensor_id;sensor_type;location;lat;lon;timestamp;pressure;altitude;pressure_sealevel;temperature;humidity
18396;BME280;76377;45.194;5.734;2024-02-15T00:00:25;99726.25;;;8.43;67.16
18396;BME280;76377;45.194;5.734;2024-02-15T00:02:54;99735.94;;;8.49;67.30
18396;BME280;76377;45.194;5.734;2024-02-15T00:05:23;99729.84;;;8.35;68.47
18396;BME280;76377;45.194;5.734;2024-02-15T00:07:50;99731.31;;;8.23;69.12
18396;BME280;76377;45.194;5.734;2024-02-15T00:10:17;99732.00;;;8.20;67.99
18396;BME280;76377;45.194;5.734;2024-02-15T00:12:46;99728.09;;;8.21;69.24
18396;BME280;76377;45.194;5.734;2024-02-15T00:15:16;99723.34;;;8.31;67.94
18396;BME280;76377;45.194;5.734;2024-02-15T00:17:45;99721.09;;;8.33;67.76
18396;BME280;76377;45.194;5.734;2024-02-15T00:20:14;99726.44;;;8.38;68.06
18396;BME280;76377;45.194;5.734;2024-02-15T00:22:43;99729.19;;;8.38;68.01
18396;BME280;76377;45.194;5.734;2024-02-15T00:25:10;99726.25;;;8.43;68.21
18396;BME280;76377;45.194;5.734;2024-02-15T00:27:39;99734.31;;;8.48;67.76
18396;BME280;76377;45.194;5.734;2024-02-15T00:30:08;99725.72;;;8.49;67.66
18396;BME280;76377;45.194;5.734;2024-02-15T00:32:38;99729.06;;;8.55;67.44
18396;BME280;76377;45.194;5.734;2024-02-15T00:35:05;99719.94;;;8.63;67.72
18396;BME280;76377;45.194;5.734;2024-02-15T00:37:36;99718.06;;;8.55;68.94
18396;BME280;76377;45.194;5.734;2024-02-15T00:40:05;99710.44;;;8.52;68.53
18396;BME280;76377;45.194;5.734;2024-02-15T00:42:34;99719.38;;;8.49;69.05
18396;BME280;76377;45.194;5.734;2024-02-15T00:45:01;99718.72;;;8.52;69.33
18396;BME280;76377;45.194;5.734;2024-02-15T00:47:29;99717.78;;;8.48;69.18
18396;BME280;76377;45.194;5.734;2024-02-15T00:49:56;99725.56;;;8.46;70.33
18396;BME280;76377;45.194;5.734;2024-02-15T00:52:24;99719.66;;;8.35;70.95
18396;BME280;76377;45.194;5.734;2024-02-15T00:54:52;99724.00;;;8.28;70.98
18396;BME280;76377;45.194;5.734;2024-02-15T00:57:19;99719.66;;;8.35;70.42
18396;BME280;76377;45.194;5.734;2024-02-15T00:59:49;99716.22;;;8.30;70.39
18396;BME280;76377;45.194;5.734;2024-02-15T01:02:17;99718.22;;;8.20;71.16
18396;BME280;76377;45.194;5.734;2024-02-15T01:04:45;99712.44;;;8.13;72.30
18396;BME280;76377;45.194;5.734;2024-02-15T01:07:12;99718.47;;;8.07;72.37
18396;BME280;76377;45.194;5.734;2024-02-15T01:09:39;99716.97;;;8.09;72.63
18396;BME280;76377;45.194;5.734;2024-02-15T01:12:08;99715.66;;;8.15;72.02
18396;BME280;76377;45.194;5.734;2024-02-15T01:14:36;99722.09;;;8.19;71.65
18396;BME280;76377;45.194;5.734;2024-02-15T01:17:04;99717.75;;;8.18;71.28
18396;BME280;76377;45.194;5.734;2024-02-15T01:19:31;99718.59;;;8.10;71.29
18396;BME280;76377;45.194;5.734;2024-02-15T01:21:58;99713.41;;;8.09;72.04
18396;BME280;76377;45.194;5.734;2024-02-15T01:24:25;99714.19;;;8.18;71.68
18396;BME280;76377;45.194;5.734;2024-02-15T01:26:55;99706.22;;;7.96;71.93
18396;BME280;76377;45.194;5.734;2024-02-15T01:29:23;99714.50;;;7.87;73.65
18396;BME280;76377;45.194;5.734;2024-02-15T01:31:51;99721.38;;;7.64;74.68
18396;BME280;76377;45.194;5.734;2024-02-15T01:34:20;99713.91;;;7.64;74.09
18396;BME280;76377;45.194;5.734;2024-02-15T01:36:48;99717.88;;;7.37;74.34
18396;BME280;76377;45.194;5.734;2024-02-15T01:39:15;99711.41;;;7.24;76.07
18396;BME280;76377;45.194;5.734;2024-02-15T01:41:46;99720.16;;;7.35;75.32
18396;BME280;76377;45.194;5.734;2024-02-15T01:44:14;99708.47;;;7.47;74.83
18396;BME280;76377;45.194;5.734;2024-02-15T01:46:42;99714.59;;;7.52;74.40
18396;BME280;76377;45.194;5.734;2024-02-15T01:49:09;99716.03;;;7.58;73.86
18396;BME280;76377;45.194;5.734;2024-02-15T01:51:37;99714.41;;;7.66;73.77
18396;BME280;76377;45.194;5.734;2024-02-15T01:54:05;99708.38;;;7.73;72.61
18396;BME280;76377;45.194;5.734;2024-02-15T01:56:32;99715.03;;;7.72;73.31
18396;BME280;76377;45.194;5.734;2024-02-15T01:58:59;99711.78;;;7.70;73.01
18396;BME280;76377;45.194;5.734;2024-02-15T02:01:27;99709.03;;;7.70;73.02
18396;BME280;76377;45.194;5.734;2024-02-15T02:03:56;99697.09;;;7.66;73.72
18396;BME280;76377;45.194;5.734;2024-02-15T02:06:24;99699.22;;;7.60;73.85
18396;BME280;76377;45.194;5.734;2024-02-15T02:08:51;99694.50;;;7.60;73.46
18396;BME280;76377;45.194;5.734;2024-02-15T02:11:22;99688.34;;;7.64;73.60
18396;BME280;76377;45.194;5.734;2024-02-15T02:13:49;99686.06;;;7.66;73.88
18396;BME280;76377;45.194;5.734;2024-02-15T02:16:27;99686.38;;;7.73;73.56
18396;BME280;76377;45.194;5.734;2024-02-15T02:18:56;99686.50;;;7.76;73.16
18396;BME280;76377;45.194;5.734;2024-02-15T02:21:23;99682.78;;;7.81;72.94
18396;BME280;76377;45.194;5.734;2024-02-15T02:23:53;99684.41;;;7.82;72.26
18396;BME280;76377;45.194;5.734;2024-02-15T02:26:24;99686.50;;;7.85;72.72
18396;BME280;76377;45.194;5.734;2024-02-15T02:28:51;99687.31;;;7.77;73.65
18396;BME280;76377;45.194;5.734;2024-02-15T02:31:20;99688.31;;;7.72;74.10
18396;BME280;76377;45.194;5.734;2024-02-15T02:33:48;99686.66;;;7.80;73.95
18396;BME280;76377;45.194;5.734;2024-02-15T02:36:17;99681.16;;;7.80;74.22
18396;BME280;76377;45.194;5.734;2024-02-15T02:38:44;99688.94;;;7.78;74.24
18396;BME280;76377;45.194;5.734;2024-02-15T02:41:15;99684.59;;;7.68;74.78
18396;BME280;76377;45.194;5.734;2024-02-15T02:43:44;99680.88;;;7.73;74.36
18396;BME280;76377;45.194;5.734;2024-02-15T02:46:11;99680.56;;;7.66;74.43
18396;BME280;76377;45.194;5.734;2024-02-15T02:48:38;99679.31;;;7.54;75.75
18396;BME280;76377;45.194;5.734;2024-02-15T02:51:07;99687.22;;;7.65;74.73
18396;BME280;76377;45.194;5.734;2024-02-15T02:53:34;99685.59;;;7.64;74.99
18396;BME280;76377;45.194;5.734;2024-02-15T02:56:02;99692.22;;;7.63;74.65
18396;BME280;76377;45.194;5.734;2024-02-15T02:58:29;99692.22;;;7.63;74.78
18396;BME280;76377;45.194;5.734;2024-02-15T03:00:58;99685.47;;;7.51;74.79
18396;BME280;76377;45.194;5.734;2024-02-15T03:03:26;99686.78;;;7.45;75.88
18396;BME280;76377;45.194;5.734;2024-02-15T03:05:54;99701.69;;;7.44;76.58
18396;BME280;76377;45.194;5.734;2024-02-15T03:08:22;99692.00;;;7.38;76.85
18396;BME280;76377;45.194;5.734;2024-02-15T03:10:49;99692.50;;;7.32;76.89
18396;BME280;76377;45.194;5.734;2024-02-15T03:13:17;99698.16;;;7.35;76.92
18396;BME280;76377;45.194;5.734;2024-02-15T03:15:46;99692.50;;;7.32;76.91
18396;BME280;76377;45.194;5.734;2024-02-15T03:18:16;99703.16;;;7.24;77.68
18396;BME280;76377;45.194;5.734;2024-02-15T03:20:43;99698.00;;;7.23;77.94
18396;BME280;76377;45.194;5.734;2024-02-15T03:23:10;99699.31;;;7.17;77.71
18396;BME280;76377;45.194;5.734;2024-02-15T03:25:37;99698.47;;;7.25;77.46
18396;BME280;76377;45.194;5.734;2024-02-15T03:28:05;99698.00;;;7.23;76.95
18396;BME280;76377;45.194;5.734;2024-02-15T03:30:32;99694.78;;;7.12;77.88
18396;BME280;76377;45.194;5.734;2024-02-15T03:33:00;99691.91;;;7.00;78.05
18396;BME280;76377;45.194;5.734;2024-02-15T03:35:30;99699.97;;;7.05;78.58
18396;BME280;76377;45.194;5.734;2024-02-15T03:37:57;99695.94;;;7.03;78.05
18396;BME280;76377;45.194;5.734;2024-02-15T03:40:26;99693.00;;;7.08;78.21
18396;BME280;76377;45.194;5.734;2024-02-15T03:42:54;99695.59;;;7.13;77.51
18396;BME280;76377;45.194;5.734;2024-02-15T03:45:22;99695.94;;;7.03;78.51
18396;BME280;76377;45.194;5.734;2024-02-15T03:47:50;99696.91;;;6.89;79.88
18396;BME280;76377;45.194;5.734;2024-02-15T03:50:18;99685.44;;;6.79;80.25
18396;BME280;76377;45.194;5.734;2024-02-15T03:52:49;99692.84;;;6.70;80.62
18396;BME280;76377;45.194;5.734;2024-02-15T03:55:17;99689.13;;;6.74;80.36
18396;BME280;76377;45.194;5.734;2024-02-15T03:57:44;99691.09;;;6.82;80.49
18396;BME280;76377;45.194;5.734;2024-02-15T04:00:12;99690.63;;;6.89;80.07
18396;BME280;76377;45.194;5.734;2024-02-15T04:02:46;99692.22;;;6.90;79.59
18396;BME280;76377;45.194;5.734;2024-02-15T04:05:14;99688.03;;;6.92;79.72
18396;BME280;76377;45.194;5.734;2024-02-15T04:07:43;99679.13;;;6.95;79.22
18396;BME280;76377;45.194;5.734;2024-02-15T04:10:12;99673.63;;;6.95;79.13
18396;BME280;76377;45.194;5.734;2024-02-15T04:12:39;99672.03;;;6.86;79.94
18396;BME280;76377;45.194;5.734;2024-02-15T04:15:08;99668.13;;;6.70;81.09
18396;BME280;76377;45.194;5.734;2024-02-15T04:17:39;99675.88;;;6.76;80.55
18396;BME280;76377;45.194;5.734;2024-02-15T04:20:09;99683.19;;;6.81;80.41
18396;BME280;76377;45.194;5.734;2024-02-15T04:22:37;99682.84;;;6.74;80.96
18396;BME280;76377;45.194;5.734;2024-02-15T04:25:05;99668.63;;;6.72;80.97
18396;BME280;76377;45.194;5.734;2024-02-15T04:27:35;99678.81;;;6.71;81.02
18396;BME280;76377;45.194;5.734;2024-02-15T04:30:02;99669.41;;;6.72;81.01
18396;BME280;76377;45.194;5.734;2024-02-15T04:32:30;99675.25;;;6.71;80.57
18396;BME280;76377;45.194;5.734;2024-02-15T04:34:59;99668.44;;;6.68;80.72
18396;BME280;76377;45.194;5.734;2024-02-15T04:37:27;99665.72;;;6.68;80.41
18396;BME280;76377;45.194;5.734;2024-02-15T04:39:57;99660.38;;;6.63;81.20
18396;BME280;76377;45.194;5.734;2024-02-15T04:42:31;99651.97;;;6.59;81.37
18396;BME280;76377;45.194;5.734;2024-02-15T04:45:01;99656.97;;;6.66;81.09
18396;BME280;76377;45.194;5.734;2024-02-15T04:47:29;99638.25;;;6.59;81.34
18396;BME280;76377;45.194;5.734;2024-02-15T04:49:56;99643.41;;;6.44;81.98
18396;BME280;76377;45.194;5.734;2024-02-15T04:52:23;99638.56;;;6.49;82.01
18396;BME280;76377;45.194;5.734;2024-02-15T04:54:50;99632.41;;;6.70;80.92
18396;BME280;76377;45.194;5.734;2024-02-15T04:57:20;99629.16;;;6.76;80.03
18396;BME280;76377;45.194;5.734;2024-02-15T04:59:47;99610.59;;;6.64;80.56
18396;BME280;76377;45.194;5.734;2024-02-15T05:02:16;99606.41;;;6.50;81.82
18396;BME280;76377;45.194;5.734;2024-02-15T05:04:45;99618.53;;;6.57;81.55
18396;BME280;76377;45.194;5.734;2024-02-15T05:07:13;99621.59;;;6.56;81.37
18396;BME280;76377;45.194;5.734;2024-02-15T05:09:42;99623.06;;;6.45;82.18
18396;BME280;76377;45.194;5.734;2024-02-15T05:12:10;99610.94;;;6.46;81.93
18396;BME280;76377;45.194;5.734;2024-02-15T05:14:37;99612.06;;;6.45;81.96
18396;BME280;76377;45.194;5.734;2024-02-15T05:17:04;99604.63;;;6.54;81.20
18396;BME280;76377;45.194;5.734;2024-02-15T05:19:36;99610.59;;;6.56;81.50
18396;BME280;76377;45.194;5.734;2024-02-15T05:22:06;99604.31;;;6.47;81.63
18396;BME280;76377;45.194;5.734;2024-02-15T05:24:33;99607.72;;;6.44;82.38
18396;BME280;76377;45.194;5.734;2024-02-15T05:27:01;99602.88;;;6.41;81.76
18396;BME280;76377;45.194;5.734;2024-02-15T05:29:28;99609.00;;;6.38;81.18
18396;BME280;76377;45.194;5.734;2024-02-15T05:31:59;99597.03;;;6.51;80.91
18396;BME280;76377;45.194;5.734;2024-02-15T05:34:27;99601.56;;;6.55;80.59
18396;BME280;76377;45.194;5.734;2024-02-15T05:36:56;99591.53;;;6.16;82.89
18396;BME280;76377;45.194;5.734;2024-02-15T05:39:23;99593.47;;;6.07;83.59
18396;BME280;76377;45.194;5.734;2024-02-15T05:41:51;99590.88;;;6.02;83.86
18396;BME280;76377;45.194;5.734;2024-02-15T05:44:18;99587.31;;;5.93;83.70
18396;BME280;76377;45.194;5.734;2024-02-15T05:46:46;99587.50;;;5.96;84.09
18396;BME280;76377;45.194;5.734;2024-02-15T05:49:13;99584.59;;;5.53;86.07
18396;BME280;76377;45.194;5.734;2024-02-15T05:51:43;99585.88;;;5.47;87.47
18396;BME280;76377;45.194;5.734;2024-02-15T05:54:17;99581.06;;;5.61;86.63
18396;BME280;76377;45.194;5.734;2024-02-15T05:56:44;99569.63;;;5.68;86.64
18396;BME280;76377;45.194;5.734;2024-02-15T05:59:17;99580.28;;;5.69;86.54
18396;BME280;76377;45.194;5.734;2024-02-15T06:01:46;99564.31;;;5.71;86.32
18396;BME280;76377;45.194;5.734;2024-02-15T06:04:14;99574.22;;;5.81;85.86
18396;BME280;76377;45.194;5.734;2024-02-15T06:06:42;99580.84;;;5.89;85.53
18396;BME280;76377;45.194;5.734;2024-02-15T06:09:09;99569.53;;;5.82;85.92
18396;BME280;76377;45.194;5.734;2024-02-15T06:11:38;99570.84;;;5.93;85.30
18396;BME280;76377;45.194;5.734;2024-02-15T06:14:05;99571.03;;;5.96;85.03
18396;BME280;76377;45.194;5.734;2024-02-15T06:16:33;99578.94;;;6.07;84.16
18396;BME280;76377;45.194;5.734;2024-02-15T06:19:00;99578.94;;;6.07;84.00
18396;BME280;76377;45.194;5.734;2024-02-15T06:21:27;99578.94;;;5.98;84.85
18396;BME280;76377;45.194;5.734;2024-02-15T06:23:54;99575.72;;;5.96;84.82
18396;BME280;76377;45.194;5.734;2024-02-15T06:26:21;99569.84;;;5.89;84.78
18396;BME280;76377;45.194;5.734;2024-02-15T06:28:50;99577.91;;;5.77;85.36
18396;BME280;76377;45.194;5.734;2024-02-15T06:31:34;99580.84;;;5.89;85.08
18396;BME280;76377;45.194;5.734;2024-02-15T06:34:22;99560.81;;;5.80;85.63
18396;BME280;76377;45.194;5.734;2024-02-15T06:37:36;99563.81;;;5.61;86.99
18396;BME280;76377;45.194;5.734;2024-02-15T06:40:21;99571.25;;;5.69;86.73
18396;BME280;76377;45.194;5.734;2024-02-15T06:42:48;99562.69;;;5.70;86.94
18396;BME280;76377;45.194;5.734;2024-02-15T06:45:17;99564.19;;;5.77;87.05
18396;BME280;76377;45.194;5.734;2024-02-15T06:47:45;99571.84;;;5.97;85.06
18396;BME280;76377;45.194;5.734;2024-02-15T06:50:13;99565.97;;;5.73;86.97
18396;BME280;76377;45.194;5.734;2024-02-15T06:52:40;99572.59;;;5.89;86.47
18396;BME280;76377;45.194;5.734;2024-02-15T06:55:08;99566.03;;;6.07;85.36
18396;BME280;76377;45.194;5.734;2024-02-15T06:57:38;99564.25;;;6.11;84.67
18396;BME280;76377;45.194;5.734;2024-02-15T07:00:07;99577.97;;;6.11;84.78
18396;BME280;76377;45.194;5.734;2024-02-15T07:02:36;99567.66;;;6.25;84.68
18396;BME280;76377;45.194;5.734;2024-02-15T07:05:04;99566.34;;;6.57;82.88
18396;BME280;76377;45.194;5.734;2024-02-15T07:07:32;99570.03;;;6.61;82.53
18396;BME280;76377;45.194;5.734;2024-02-15T07:10:00;99573.88;;;6.95;80.56
18396;BME280;76377;45.194;5.734;2024-02-15T07:12:28;99579.47;;;7.16;79.30
18396;BME280;76377;45.194;5.734;2024-02-15T07:14:57;99575.03;;;7.32;77.55
18396;BME280;76377;45.194;5.734;2024-02-15T07:17:27;99583.78;;;7.34;77.66
18396;BME280;76377;45.194;5.734;2024-02-15T07:19:56;99578.31;;;7.55;77.69
18396;BME280;76377;45.194;5.734;2024-02-15T07:22:23;99579.81;;;7.82;75.01
18396;BME280;76377;45.194;5.734;2024-02-15T07:24:50;99583.72;;;7.72;75.27
18396;BME280;76377;45.194;5.734;2024-02-15T07:27:17;99574.19;;;7.99;74.59
18396;BME280;76377;45.194;5.734;2024-02-15T07:29:45;99570.75;;;8.02;72.98
18396;BME280;76377;45.194;5.734;2024-02-15T07:32:12;99580.28;;;8.26;72.80
18396;BME280;76377;45.194;5.734;2024-02-15T07:34:39;99577.53;;;8.26;72.33
18396;BME280;76377;45.194;5.734;2024-02-15T07:37:08;99585.00;;;8.25;71.73
18396;BME280;76377;45.194;5.734;2024-02-15T07:39:40;99579.63;;;8.70;70.22
18396;BME280;76377;45.194;5.734;2024-02-15T07:42:08;99583.88;;;8.68;69.52
18396;BME280;76377;45.194;5.734;2024-02-15T07:44:35;99583.56;;;8.81;69.43
18396;BME280;76377;45.194;5.734;2024-02-15T07:47:03;99576.06;;;9.15;67.06
18396;BME280;76377;45.194;5.734;2024-02-15T07:49:31;99572.34;;;10.45;63.30
18396;BME280;76377;45.194;5.734;2024-02-15T07:51:59;99570.97;;;11.74;57.67
18396;BME280;76377;45.194;5.734;2024-02-15T07:54:27;99554.34;;;11.89;55.27
18396;BME280;76377;45.194;5.734;2024-02-15T07:56:55;99557.19;;;12.09;55.05
18396;BME280;76377;45.194;5.734;2024-02-15T07:59:23;99558.50;;;12.92;53.03
18396;BME280;76377;45.194;5.734;2024-02-15T08:01:50;99554.59;;;13.39;51.17
18396;BME280;76377;45.194;5.734;2024-02-15T08:04:18;99550.13;;;13.80;50.87
18396;BME280;76377;45.194;5.734;2024-02-15T08:06:45;99553.03;;;14.43;48.52
18396;BME280;76377;45.194;5.734;2024-02-15T08:09:15;99545.44;;;14.74;47.78
18396;BME280;76377;45.194;5.734;2024-02-15T08:11:45;99544.72;;;14.17;48.32
18396;BME280;76377;45.194;5.734;2024-02-15T08:14:12;99545.78;;;14.39;48.22
18396;BME280;76377;45.194;5.734;2024-02-15T08:16:39;99550.84;;;14.03;49.65
18396;BME280;76377;45.194;5.734;2024-02-15T08:19:07;99547.16;;;14.22;48.73
18396;BME280;76377;45.194;5.734;2024-02-15T08:21:34;99541.56;;;14.82;46.53
18396;BME280;76377;45.194;5.734;2024-02-15T08:24:03;99536.22;;;15.03;46.01
18396;BME280;76377;45.194;5.734;2024-02-15T08:26:32;99534.13;;;15.34;45.48
18396;BME280;76377;45.194;5.734;2024-02-15T08:29:02;99536.84;;;14.86;46.09
18396;BME280;76377;45.194;5.734;2024-02-15T08:31:30;99535.84;;;14.68;46.08
18396;BME280;76377;45.194;5.734;2024-02-15T08:33:57;99526.81;;;15.15;45.70
18396;BME280;76377;45.194;5.734;2024-02-15T08:36:26;99524.16;;;15.77;44.53
18396;BME280;76377;45.194;5.734;2024-02-15T08:38:53;99523.88;;;15.45;45.06
18396;BME280;76377;45.194;5.734;2024-02-15T08:41:20;99521.84;;;16.66;42.95
18396;BME280;76377;45.194;5.734;2024-02-15T08:43:52;99510.38;;;17.53;40.72
18396;BME280;76377;45.194;5.734;2024-02-15T08:46:23;99512.16;;;19.32;37.74
18396;BME280;76377;45.194;5.734;2024-02-15T08:48:52;99507.44;;;20.76;34.85
18396;BME280;76377;45.194;5.734;2024-02-15T08:51:20;99501.84;;;22.03;32.58
18396;BME280;76377;45.194;5.734;2024-02-15T08:53:48;99501.22;;;24.50;29.49
18396;BME280;76377;45.194;5.734;2024-02-15T08:56:15;99489.66;;;25.97;26.94
18396;BME280;76377;45.194;5.734;2024-02-15T08:58:42;99490.50;;;27.65;24.68
18396;BME280;76377;45.194;5.734;2024-02-15T09:01:09;99499.72;;;28.43;23.22
18396;BME280;76377;45.194;5.734;2024-02-15T09:03:40;99485.78;;;28.08;23.25
18396;BME280;76377;45.194;5.734;2024-02-15T09:06:08;99485.66;;;28.48;22.64
18396;BME280;76377;45.194;5.734;2024-02-15T09:08:36;99486.56;;;27.23;23.83
18396;BME280;76377;45.194;5.734;2024-02-15T09:11:03;99479.09;;;27.07;23.84
18396;BME280;76377;45.194;5.734;2024-02-15T09:13:31;99473.22;;;25.45;25.59
18396;BME280;76377;45.194;5.734;2024-02-15T09:16:03;99475.63;;;26.81;24.49
18396;BME280;76377;45.194;5.734;2024-02-15T09:18:30;99467.72;;;26.76;24.53
18396;BME280;76377;45.194;5.734;2024-02-15T09:21:00;99471.72;;;26.57;24.77
18396;BME280;76377;45.194;5.734;2024-02-15T09:23:27;99467.72;;;24.36;27.18
18396;BME280;76377;45.194;5.734;2024-02-15T09:25:55;99459.91;;;25.80;25.91
18396;BME280;76377;45.194;5.734;2024-02-15T09:28:22;99466.47;;;25.30;25.85
18396;BME280;76377;45.194;5.734;2024-02-15T09:30:50;99467.41;;;24.18;27.49
18396;BME280;76377;45.194;5.734;2024-02-15T09:33:19;99459.31;;;25.51;26.13
18396;BME280;76377;45.194;5.734;2024-02-15T09:35:49;99452.75;;;24.77;27.17
18396;BME280;76377;45.194;5.734;2024-02-15T09:38:18;99457.19;;;25.16;26.10
18396;BME280;76377;45.194;5.734;2024-02-15T09:40:48;99448.53;;;22.32;29.18
18396;BME280;76377;45.194;5.734;2024-02-15T09:43:16;99459.75;;;20.42;32.45
18396;BME280;76377;45.194;5.734;2024-02-15T09:45:43;99467.38;;;19.18;35.23
18396;BME280;76377;45.194;5.734;2024-02-15T09:48:11;99460.63;;;18.46;37.00
18396;BME280;76377;45.194;5.734;2024-02-15T09:50:39;99457.25;;;18.79;36.41
18396;BME280;76377;45.194;5.734;2024-02-15T09:53:09;99448.44;;;19.36;35.76
18396;BME280;76377;45.194;5.734;2024-02-15T09:55:39;99440.59;;;19.99;34.16
18396;BME280;76377;45.194;5.734;2024-02-15T09:58:08;99431.25;;;19.31;35.25
18396;BME280;76377;45.194;5.734;2024-02-15T10:00:35;99435.94;;;18.26;36.84
18396;BME280;76377;45.194;5.734;2024-02-15T10:03:05;99436.81;;;17.98;38.00
18396;BME280;76377;45.194;5.734;2024-02-15T10:05:33;99427.34;;;17.28;39.46
18396;BME280;76377;45.194;5.734;2024-02-15T10:08:00;99412.13;;;17.54;38.42
18396;BME280;76377;45.194;5.734;2024-02-15T10:10:27;99407.00;;;16.92;39.06
18396;BME280;76377;45.194;5.734;2024-02-15T10:12:56;99416.19;;;17.03;39.49
18396;BME280;76377;45.194;5.734;2024-02-15T10:15:34;99402.63;;;16.77;39.62
18396;BME280;76377;45.194;5.734;2024-02-15T10:18:02;99396.22;;;16.98;39.47
18396;BME280;76377;45.194;5.734;2024-02-15T10:20:29;99402.25;;;15.70;41.49
18396;BME280;76377;45.194;5.734;2024-02-15T10:23:10;99395.59;;;15.31;42.66
18396;BME280;76377;45.194;5.734;2024-02-15T10:25:38;99390.22;;;14.57;44.27
18396;BME280;76377;45.194;5.734;2024-02-15T10:28:08;99386.63;;;15.00;43.92
18396;BME280;76377;45.194;5.734;2024-02-15T10:30:35;99385.38;;;14.94;44.00
18396;BME280;76377;45.194;5.734;2024-02-15T10:33:03;99379.75;;;14.87;44.27
18396;BME280;76377;45.194;5.734;2024-02-15T10:35:31;99378.13;;;14.42;45.56
18396;BME280;76377;45.194;5.734;2024-02-15T10:38:06;99382.06;;;13.70;47.19
18396;BME280;76377;45.194;5.734;2024-02-15T10:40:40;99376.25;;;13.82;47.95
18396;BME280;76377;45.194;5.734;2024-02-15T10:43:10;99371.81;;;13.74;48.16
18396;BME280;76377;45.194;5.734;2024-02-15T10:45:39;99362.97;;;13.12;49.88
18396;BME280;76377;45.194;5.734;2024-02-15T10:48:07;99367.06;;;13.18;49.99
18396;BME280;76377;45.194;5.734;2024-02-15T10:50:35;99357.72;;;13.60;49.08
18396;BME280;76377;45.194;5.734;2024-02-15T10:53:07;99347.13;;;13.69;49.38
18396;BME280;76377;45.194;5.734;2024-02-15T10:55:44;99343.00;;;13.56;49.97
18396;BME280;76377;45.194;5.734;2024-02-15T10:58:19;99338.03;;;13.72;50.15
18396;BME280;76377;45.194;5.734;2024-02-15T11:00:47;99334.50;;;13.75;49.72
18396;BME280;76377;45.194;5.734;2024-02-15T11:03:20;99335.00;;;13.84;49.49
18396;BME280;76377;45.194;5.734;2024-02-15T11:05:52;99324.97;;;13.76;49.44
18396;BME280;76377;45.194;5.734;2024-02-15T11:08:22;99323.44;;;14.16;48.62
18396;BME280;76377;45.194;5.734;2024-02-15T11:10:49;99314.84;;;14.32;48.54
18396;BME280;76377;45.194;5.734;2024-02-15T11:13:23;99320.00;;;14.70;47.47
18396;BME280;76377;45.194;5.734;2024-02-15T11:15:50;99309.66;;;14.71;47.57
18396;BME280;76377;45.194;5.734;2024-02-15T11:18:43;99303.31;;;14.30;48.68
18396;BME280;76377;45.194;5.734;2024-02-15T11:21:11;99302.22;;;14.41;48.62
18396;BME280;76377;45.194;5.734;2024-02-15T11:23:38;99302.56;;;14.36;48.41
18396;BME280;76377;45.194;5.734;2024-02-15T11:26:13;99295.75;;;14.71;47.77
18396;BME280;76377;45.194;5.734;2024-02-15T11:29:02;99295.09;;;14.92;46.95
18396;BME280;76377;45.194;5.734;2024-02-15T11:31:54;99291.94;;;15.00;46.99
18396;BME280;76377;45.194;5.734;2024-02-15T11:34:44;99279.25;;;15.06;46.80
18396;BME280;76377;45.194;5.734;2024-02-15T11:37:50;99273.66;;;14.99;46.80
18396;BME280;76377;45.194;5.734;2024-02-15T11:40:19;99266.41;;;14.84;46.60
18396;BME280;76377;45.194;5.734;2024-02-15T11:42:49;99264.19;;;14.52;46.83
18396;BME280;76377;45.194;5.734;2024-02-15T11:45:18;99271.63;;;14.41;47.32
18396;BME280;76377;45.194;5.734;2024-02-15T11:47:47;99268.22;;;14.59;47.27
18396;BME280;76377;45.194;5.734;2024-02-15T11:50:17;99263.91;;;14.68;47.21
18396;BME280;76377;45.194;5.734;2024-02-15T11:52:48;99255.50;;;14.58;47.47
18396;BME280;76377;45.194;5.734;2024-02-15T11:55:19;99254.78;;;14.68;48.00
18396;BME280;76377;45.194;5.734;2024-02-15T11:57:56;99257.75;;;15.00;46.88
18396;BME280;76377;45.194;5.734;2024-02-15T12:00:30;99246.56;;;14.93;47.61
18396;BME280;76377;45.194;5.734;2024-02-15T12:03:16;99257.97;;;14.70;48.05
18396;BME280;76377;45.194;5.734;2024-02-15T12:06:01;99247.97;;;14.62;47.98
18396;BME280;76377;45.194;5.734;2024-02-15T12:08:46;99242.41;;;14.62;48.92
18396;BME280;76377;45.194;5.734;2024-02-15T12:11:30;99246.56;;;14.89;48.44
18396;BME280;76377;45.194;5.734;2024-02-15T12:14:15;99248.88;;;14.76;48.81
18396;BME280;76377;45.194;5.734;2024-02-15T12:17:05;99244.97;;;14.40;48.94
18396;BME280;76377;45.194;5.734;2024-02-15T12:19:51;99236.97;;;14.32;49.20
18396;BME280;76377;45.194;5.734;2024-02-15T12:22:21;99232.81;;;14.56;48.84
18396;BME280;76377;45.194;5.734;2024-02-15T12:24:58;99216.31;;;14.84;48.29
18396;BME280;76377;45.194;5.734;2024-02-15T12:27:26;99224.66;;;14.88;48.17
18396;BME280;76377;45.194;5.734;2024-02-15T12:29:55;99223.16;;;15.04;47.38
18396;BME280;76377;45.194;5.734;2024-02-15T12:32:25;99228.38;;;15.09;46.88
18396;BME280;76377;45.194;5.734;2024-02-15T12:34:52;99221.25;;;15.15;46.51
18396;BME280;76377;45.194;5.734;2024-02-15T12:37:20;99223.28;;;15.29;45.89
18396;BME280;76377;45.194;5.734;2024-02-15T12:39:49;99215.78;;;15.51;44.94
18396;BME280;76377;45.194;5.734;2024-02-15T12:42:17;99207.03;;;15.56;44.61
18396;BME280;76377;45.194;5.734;2024-02-15T12:44:46;99207.38;;;15.33;45.02
18396;BME280;76377;45.194;5.734;2024-02-15T12:47:18;99203.03;;;15.43;44.95
18396;BME280;76377;45.194;5.734;2024-02-15T12:49:47;99199.88;;;15.55;44.42
18396;BME280;76377;45.194;5.734;2024-02-15T12:52:36;99199.19;;;15.72;45.28
18396;BME280;76377;45.194;5.734;2024-02-15T12:55:11;99199.16;;;15.69;45.13
18396;BME280;76377;45.194;5.734;2024-02-15T12:57:39;99195.97;;;15.67;45.06
18396;BME280;76377;45.194;5.734;2024-02-15T13:00:11;99188.44;;;15.74;44.78
18396;BME280;76377;45.194;5.734;2024-02-15T13:02:43;99184.84;;;15.74;44.86
18396;BME280;76377;45.194;5.734;2024-02-15T13:05:12;99190.41;;;15.77;44.94
18396;BME280;76377;45.194;5.734;2024-02-15T13:07:39;99188.81;;;15.62;45.41
18396;BME280;76377;45.194;5.734;2024-02-15T13:10:07;99185.50;;;15.39;45.88
18396;BME280;76377;45.194;5.734;2024-02-15T13:12:35;99188.63;;;15.12;46.31
18396;BME280;76377;45.194;5.734;2024-02-15T13:15:04;99183.03;;;15.09;46.70
18396;BME280;76377;45.194;5.734;2024-02-15T13:17:34;99181.38;;;14.97;46.97
18396;BME280;76377;45.194;5.734;2024-02-15T13:20:03;99179.06;;;15.13;46.28